createdAt,value
2017-10-02T09:32:04.276Z,1008.4
2017-10-02T09:33:05.888Z,1008.4
2017-10-02T09:34:07.531Z,1008.4
2017-10-02T09:35:09.157Z,1008.4
2017-10-02T09:36:10.785Z,1008.5
2017-10-02T09:37:12.407Z,1008.5
2017-10-02T09:38:14.031Z,1008.5
2017-10-02T09:39:15.658Z,1008.5
2017-10-02T09:40:17.275Z,1008.4
2017-10-02T09:41:19.171Z,1008.4
2017-10-02T09:42:20.762Z,1008.4
2017-10-02T09:43:22.389Z,1008.4
2017-10-02T09:44:24.015Z,1008.5
2017-10-02T09:45:25.643Z,1008.5
2017-10-02T09:46:27.271Z,1008.4
2017-10-02T09:47:28.893Z,1008.5
2017-10-02T09:48:30.521Z,1008.4
2017-10-02T09:49:32.149Z,1008.4
2017-10-02T09:50:33.775Z,1008.4
2017-10-02T09:51:38.235Z,1008.5
2017-10-02T09:52:39.861Z,1008.5
2017-10-02T09:53:41.489Z,1008.4
2017-10-02T09:54:43.115Z,1008.4
2017-10-02T09:55:44.739Z,1008.4
2017-10-02T09:56:46.386Z,1008.3
2017-10-02T09:57:48.011Z,1008.4
2017-10-02T09:58:49.643Z,1008.6
2017-10-02T09:59:51.271Z,1008.9
2017-10-02T10:00:52.901Z,1008.9
2017-10-02T10:01:54.525Z,1008.9
2017-10-02T10:02:56.153Z,1008.6
2017-10-02T10:03:57.784Z,1008.4
2017-10-02T10:04:59.408Z,1008.3
2017-10-02T10:06:01.038Z,1008.2
2017-10-02T10:07:02.671Z,1008.1
2017-10-02T10:08:04.306Z,1008.0
2017-10-02T10:09:05.931Z,1008.0
2017-10-02T10:10:07.557Z,1008.0
2017-10-02T10:11:09.182Z,1008.1
2017-10-02T10:12:10.809Z,1008.1
2017-10-02T10:13:12.438Z,1008.1
2017-10-02T10:14:14.065Z,1008.1
2017-10-02T10:15:15.694Z,1008.0
2017-10-02T10:16:17.320Z,1007.9
2017-10-02T10:17:18.951Z,1007.9
2017-10-02T10:18:20.576Z,1007.9
2017-10-02T10:19:22.204Z,1007.9
2017-10-02T10:20:23.833Z,1007.9
2017-10-02T10:21:25.461Z,1007.9
2017-10-02T10:22:27.091Z,1007.9
2017-10-02T10:23:28.715Z,1007.9
2017-10-02T10:24:30.341Z,1008.0
2017-10-02T10:25:31.993Z,1008.0
2017-10-02T10:26:33.598Z,1008.0
2017-10-02T10:27:35.226Z,1008.0
2017-10-02T10:28:36.852Z,1008.1
2017-10-02T10:29:38.483Z,1008.1
2017-10-02T10:30:40.107Z,1008.2
2017-10-02T10:31:41.733Z,1008.3
2017-10-02T10:32:43.361Z,1008.3
2017-10-02T10:33:44.990Z,1008.3
2017-10-02T10:34:46.615Z,1008.3
2017-10-02T10:35:48.249Z,1008.5
2017-10-02T10:36:49.868Z,1008.5
2017-10-02T10:37:51.499Z,1008.6
2017-10-02T10:38:53.124Z,1008.4
2017-10-02T10:39:54.752Z,1008.5
2017-10-02T10:40:56.378Z,1008.5
2017-10-02T10:41:58.005Z,1008.4
2017-10-02T10:42:59.634Z,1008.4
2017-10-02T10:44:01.264Z,1008.2
2017-10-02T10:45:02.890Z,1008.1
2017-10-02T10:46:04.509Z,1008.3
2017-10-02T10:47:06.142Z,1008.3
2017-10-02T10:48:07.770Z,1008.4
2017-10-02T10:49:09.397Z,1008.4
2017-10-02T10:50:11.025Z,1008.3
2017-10-02T10:51:12.657Z,1008.4
2017-10-02T10:52:14.283Z,1008.2
2017-10-02T10:53:15.909Z,1008.3
2017-10-02T10:54:17.535Z,1008.2
2017-10-02T10:55:19.160Z,1008.2
2017-10-02T10:56:20.794Z,1008.3
2017-10-02T10:57:22.593Z,1008.4
2017-10-02T10:58:24.224Z,1008.4
2017-10-02T10:59:25.848Z,1008.2
2017-10-02T11:00:28.366Z,1008.1
2017-10-02T11:01:29.989Z,1008.2
2017-10-02T11:02:31.616Z,1008.1
2017-10-02T11:03:33.243Z,1008.2
2017-10-02T11:04:34.899Z,1008.4
2017-10-02T11:05:36.499Z,1008.5
2017-10-02T11:06:38.125Z,1008.5
2017-10-02T11:07:39.755Z,1008.8
2017-10-02T11:08:41.382Z,1008.8
2017-10-02T11:09:43.008Z,1008.7
2017-10-02T11:10:44.670Z,1008.7
2017-10-02T11:11:46.306Z,1008.5
2017-10-02T11:12:47.928Z,1008.2
2017-10-02T11:13:49.559Z,1008.4
2017-10-02T11:14:53.049Z,1008.5
2017-10-02T11:15:54.986Z,1008.5
2017-10-02T11:16:56.611Z,1008.6
2017-10-02T11:17:58.241Z,1008.6
2017-10-02T11:18:59.871Z,1008.5
2017-10-02T11:20:01.497Z,1008.5
2017-10-02T11:21:03.122Z,1008.4
2017-10-02T11:22:04.964Z,1008.4
2017-10-02T11:23:06.961Z,1008.5
2017-10-02T11:24:08.588Z,1008.5
2017-10-02T11:25:10.216Z,1008.6
2017-10-02T11:26:11.846Z,1010.9
2017-10-02T11:27:14.411Z,1034.6
2017-10-02T11:28:16.039Z,1011.5
2017-10-02T11:29:17.668Z,1017.5
2017-10-02T11:30:19.291Z,1037.0
2017-10-02T11:31:20.926Z,1036.4
2017-10-02T11:32:22.560Z,1015.0
2017-10-02T11:33:24.201Z,1011.8
2017-10-02T11:34:25.824Z,1010.8
2017-10-02T11:35:29.369Z,1010.8
2017-10-02T11:36:30.989Z,1009.7
2017-10-02T11:37:32.618Z,1009.3
2017-10-02T11:38:34.245Z,1009.1
2017-10-02T11:39:35.876Z,1009.5
2017-10-02T11:40:37.507Z,1009.3
2017-10-02T11:41:39.148Z,1009.1
2017-10-02T11:42:40.774Z,1009.5
2017-10-02T11:43:42.410Z,1010.9
2017-10-02T11:44:45.502Z,1010.8
2017-10-02T11:45:47.126Z,1024.0
2017-10-02T11:46:48.876Z,1017.0
2017-10-02T11:47:50.515Z,1027.2
2017-10-02T11:48:53.166Z,1057.1
2017-10-02T11:49:54.817Z,1066.5
2017-10-02T11:50:56.610Z,1066.3
2017-10-02T11:51:58.556Z,1042.9
2017-10-02T11:53:01.620Z,1021.1
2017-10-02T11:54:03.109Z,1008.8
2017-10-02T11:55:05.299Z,1008.9
2017-10-02T11:56:07.152Z,1015.3
2017-10-02T11:57:08.838Z,1065.3
2017-10-02T11:58:10.469Z,1066.8
2017-10-02T11:59:12.709Z,1069.8
2017-10-02T12:00:14.382Z,1068.2
2017-10-02T12:01:17.665Z,1066.7
2017-10-02T12:02:19.313Z,1064.7
2017-10-02T12:03:20.949Z,1066.9
2017-10-02T12:04:22.614Z,1066.0
2017-10-02T12:05:24.288Z,1064.5
2017-10-02T12:06:28.328Z,1065.8
2017-10-02T12:07:30.182Z,1065.8
2017-10-02T12:08:31.760Z,1065.8
2017-10-02T12:09:34.427Z,1069.4
2017-10-02T12:10:38.459Z,1070.2
2017-10-02T12:11:40.589Z,1072.5
2017-10-02T12:12:42.096Z,1076.2
2017-10-02T12:13:43.748Z,1077.9
2017-10-02T12:14:47.152Z,1075.5
2017-10-02T12:15:48.805Z,1071.2
2017-10-02T12:16:50.477Z,1068.6
2017-10-02T12:17:52.821Z,1070.1
2017-10-02T12:18:56.404Z,1066.2
2017-10-02T12:20:00.690Z,1070.1
2017-10-02T12:21:02.358Z,1062.2
2017-10-02T12:22:04.338Z,1008.9
2017-10-02T12:23:06.525Z,1008.8
2017-10-02T12:24:08.980Z,1008.9
2017-10-02T12:25:17.826Z,1009.2
2017-10-02T12:26:19.661Z,1009.1
2017-10-02T12:27:21.321Z,1052.8
2017-10-02T12:28:23.000Z,1038.1
2017-10-02T12:29:24.846Z,1059.0
2017-10-02T12:30:27.179Z,1010.4
2017-10-02T12:31:30.215Z,1051.4
2017-10-02T12:32:38.110Z,1049.7
2017-10-02T12:33:40.295Z,1039.4
2017-10-02T12:34:42.959Z,1008.9
2017-10-02T12:35:46.485Z,1008.7
2017-10-02T12:36:48.109Z,1009.4
2017-10-02T12:37:49.734Z,1026.1
2017-10-02T12:38:51.419Z,1017.4
2017-10-02T12:39:54.121Z,1042.1
2017-10-02T12:40:58.914Z,1039.6
2017-10-02T12:42:03.511Z,1037.9
2017-10-02T12:43:05.179Z,1036.1
2017-10-02T12:44:11.240Z,1033.8
2017-10-02T12:45:13.144Z,1032.8
2017-10-02T12:46:15.231Z,1031.5
2017-10-02T12:47:17.241Z,1032.8
2017-10-02T12:48:18.895Z,1032.0
2017-10-02T12:49:20.862Z,1032.2
2017-10-02T12:50:22.691Z,1032.2
2017-10-02T12:51:24.655Z,1030.1
2017-10-02T12:52:27.006Z,1028.9
2017-10-02T12:53:28.624Z,1026.9
2017-10-02T12:54:30.526Z,1023.9
2017-10-02T12:55:32.961Z,1023.3
2017-10-02T12:56:34.575Z,1024.1
2017-10-02T12:57:36.247Z,1023.3
2017-10-02T12:58:38.077Z,1022.3
2017-10-02T12:59:39.738Z,1021.8
2017-10-02T13:00:41.376Z,1021.0
2017-10-02T13:01:43.019Z,1019.7
2017-10-02T13:02:44.655Z,1018.5
2017-10-02T13:03:46.313Z,1017.5
2017-10-02T13:04:47.938Z,1017.0
2017-10-02T13:05:49.591Z,1016.4
2017-10-02T13:06:51.271Z,1015.5
2017-10-02T13:07:52.921Z,1014.6
2017-10-02T13:08:54.564Z,1014.1
2017-10-02T13:09:56.203Z,1013.7
2017-10-02T13:10:57.896Z,1013.6
2017-10-02T13:11:59.539Z,1013.4
2017-10-02T13:13:01.207Z,1013.3
2017-10-02T13:14:02.850Z,1013.2
2017-10-02T13:15:04.581Z,1012.7
2017-10-02T13:16:06.223Z,1012.0
2017-10-02T13:17:10.289Z,1011.8
2017-10-02T13:18:11.869Z,1011.5
2017-10-02T13:19:13.513Z,1011.2
2017-10-02T13:20:15.152Z,1011.0
2017-10-02T13:21:17.215Z,1011.0
2017-10-02T13:22:19.728Z,1009.2
2017-10-02T13:23:22.153Z,1010.6
2017-10-02T13:24:23.797Z,1010.4
2017-10-02T13:25:25.697Z,1010.0
2017-10-02T13:26:27.335Z,1009.9
2017-10-02T13:27:28.975Z,1008.9
2017-10-02T13:28:30.616Z,1009.2
2017-10-02T13:29:32.256Z,1009.5
2017-10-02T13:30:33.895Z,1009.1
2017-10-02T13:31:35.535Z,1009.6
2017-10-02T13:32:37.173Z,1008.7
2017-10-02T13:33:38.807Z,1008.5
2017-10-02T13:34:40.443Z,1008.5
2017-10-02T13:35:42.079Z,1008.3
2017-10-02T13:36:44.190Z,1008.3
2017-10-02T13:37:45.827Z,1008.2
2017-10-02T13:38:47.462Z,1008.7
2017-10-02T13:39:49.095Z,1009.5
2017-10-02T13:40:50.743Z,1008.9
2017-10-02T13:41:52.377Z,1009.4
2017-10-02T13:42:54.016Z,1009.3
2017-10-02T13:43:55.834Z,1008.9
2017-10-02T13:44:57.466Z,1008.8
2017-10-02T13:45:59.105Z,1008.7
2017-10-02T13:47:00.746Z,1009.1
2017-10-02T13:48:02.377Z,1008.9
2017-10-02T13:49:04.011Z,1008.8
2017-10-02T13:50:05.643Z,1008.6
2017-10-02T13:51:07.279Z,1008.7
2017-10-02T13:52:08.916Z,1009.2
2017-10-02T13:53:10.547Z,1008.7
2017-10-02T13:54:12.177Z,1008.6
2017-10-02T13:55:13.809Z,1008.5
2017-10-02T13:56:15.441Z,1008.8
2017-10-02T13:57:17.076Z,1008.5
2017-10-02T13:58:18.705Z,1008.4
2017-10-02T13:59:20.337Z,1008.3
2017-10-02T14:00:21.970Z,1008.5
2017-10-02T14:01:23.602Z,1008.6
2017-10-02T14:02:25.232Z,1008.4
2017-10-02T14:03:26.864Z,1008.2
2017-10-02T14:04:28.769Z,1008.0
2017-10-02T14:05:30.402Z,1008.0
2017-10-02T14:06:32.036Z,1008.0
2017-10-02T14:07:33.666Z,1008.0
2017-10-02T14:08:35.330Z,1008.1
2017-10-02T14:09:36.963Z,1008.5
2017-10-02T14:10:38.868Z,1008.6
2017-10-02T14:11:40.503Z,1008.5
2017-10-02T14:12:42.134Z,1008.5
2017-10-02T14:13:43.778Z,1008.5
2017-10-02T14:14:45.472Z,1008.4
2017-10-02T14:15:47.102Z,1008.3
2017-10-02T14:16:48.734Z,1008.2
2017-10-02T14:17:50.365Z,1008.3
2017-10-02T14:18:51.997Z,1008.2
2017-10-02T14:19:53.627Z,1008.1
2017-10-02T14:20:55.311Z,1008.1
2017-10-02T14:21:56.939Z,1008.2
2017-10-02T14:22:58.572Z,1008.4
2017-10-02T14:24:00.202Z,1008.3
2017-10-02T14:25:01.829Z,1008.4
2017-10-02T14:26:03.477Z,1008.2
2017-10-02T14:27:05.113Z,1008.3
2017-10-02T14:28:06.739Z,1008.2
2017-10-02T14:29:08.366Z,1008.3
2017-10-02T14:30:09.997Z,1008.2
2017-10-02T14:31:11.625Z,1008.3
2017-10-02T14:32:13.256Z,1008.2
2017-10-02T14:33:14.884Z,1008.1
2017-10-02T14:34:16.515Z,1008.1
2017-10-02T14:35:18.148Z,1007.9
2017-10-02T14:36:19.780Z,1007.9
2017-10-02T14:37:21.405Z,1008.1
2017-10-02T14:38:23.033Z,1008.2
2017-10-02T14:39:24.662Z,1008.2
2017-10-02T14:40:26.293Z,1008.1
2017-10-02T14:41:27.923Z,1008.1
2017-10-02T14:42:29.555Z,1008.1
2017-10-02T14:43:31.182Z,1008.0
2017-10-02T14:44:32.815Z,1008.0
2017-10-02T14:45:34.441Z,1008.2
2017-10-02T14:46:36.071Z,1008.1
2017-10-02T14:47:37.705Z,1008.0
2017-10-02T14:48:39.332Z,1008.1
2017-10-02T14:49:40.964Z,1007.9
2017-10-02T14:50:42.592Z,1007.9
2017-10-02T14:51:44.221Z,1008.1
2017-10-02T14:52:45.851Z,1008.1
2017-10-02T14:53:47.477Z,1008.1
2017-10-02T14:54:49.115Z,1008.1
2017-10-02T14:55:50.740Z,1008.1
2017-10-02T14:56:52.376Z,1008.0
2017-10-02T14:57:54.004Z,1008.1
2017-10-02T14:58:55.633Z,1008.0
2017-10-02T14:59:57.267Z,1008.1
2017-10-02T15:00:58.892Z,1008.0
2017-10-02T15:02:00.527Z,1008.0
2017-10-02T15:03:02.157Z,1008.0
2017-10-02T15:04:03.788Z,1008.0
2017-10-02T15:05:05.416Z,1008.0
2017-10-02T15:06:07.043Z,1007.9
2017-10-02T15:07:08.672Z,1007.8
2017-10-02T15:08:10.299Z,1007.9
2017-10-02T15:09:11.931Z,1007.9
2017-10-02T15:10:13.561Z,1007.8
2017-10-02T15:11:15.190Z,1007.8
2017-10-02T15:12:16.822Z,1007.8
2017-10-02T15:13:18.449Z,1007.7
2017-10-02T15:14:20.079Z,1007.6
2017-10-02T15:15:21.707Z,1007.7
2017-10-02T15:16:23.338Z,1007.8
2017-10-02T15:17:25.443Z,1007.8
2017-10-02T15:18:27.072Z,1007.8
2017-10-02T15:19:28.702Z,1007.8
2017-10-02T15:20:30.330Z,1007.8
2017-10-02T15:21:31.960Z,1007.8
2017-10-02T15:22:33.592Z,1007.9
2017-10-02T15:23:35.219Z,1007.8
2017-10-02T15:24:36.849Z,1007.8
2017-10-02T15:25:38.481Z,1007.7
2017-10-02T15:26:40.518Z,1007.7
2017-10-02T15:27:42.149Z,1007.6
2017-10-02T15:28:43.773Z,1007.7
2017-10-02T15:29:45.424Z,1007.8
2017-10-02T15:30:47.048Z,1007.7
2017-10-02T15:31:48.677Z,1007.9
2017-10-02T15:32:50.305Z,1007.9
2017-10-02T15:33:51.933Z,1007.9
2017-10-02T15:34:53.559Z,1007.8
2017-10-02T15:35:55.185Z,1007.8
2017-10-02T15:36:56.814Z,1007.7
2017-10-02T15:37:58.442Z,1007.7
2017-10-02T15:39:00.072Z,1007.8
2017-10-02T15:40:01.699Z,1007.8
2017-10-02T15:41:03.324Z,1007.7
2017-10-02T15:42:04.962Z,1007.7
2017-10-02T15:43:06.580Z,1007.7
2017-10-02T15:44:08.211Z,1007.7
2017-10-02T15:45:09.835Z,1007.6
2017-10-02T15:46:11.463Z,1007.6
2017-10-02T15:47:13.103Z,1007.7
2017-10-02T15:48:14.733Z,1007.7
2017-10-02T15:49:16.361Z,1007.8
2017-10-02T15:50:17.998Z,1007.8
2017-10-02T15:51:19.621Z,1007.8
2017-10-02T15:52:21.254Z,1007.8
2017-10-02T15:53:22.883Z,1007.8
2017-10-02T15:54:24.511Z,1007.7
2017-10-02T15:55:26.136Z,1007.7
2017-10-02T15:56:27.763Z,1007.7
2017-10-02T15:57:29.396Z,1007.7
2017-10-02T15:58:31.015Z,1007.8
2017-10-02T15:59:32.640Z,1007.7
2017-10-02T16:00:34.267Z,1007.7
2017-10-02T16:01:35.895Z,1007.6
2017-10-02T16:02:37.520Z,1007.7
2017-10-02T16:03:39.144Z,1007.7
2017-10-02T16:04:40.772Z,1007.7
2017-10-02T16:05:42.397Z,1007.7
2017-10-02T16:06:44.025Z,1007.7
2017-10-02T16:07:45.651Z,1007.7
2017-10-02T16:08:47.278Z,1007.7
2017-10-02T16:09:48.909Z,1007.7
2017-10-02T16:10:50.534Z,1007.7
2017-10-02T16:11:52.158Z,1007.7
2017-10-02T16:12:53.788Z,1007.6
2017-10-02T16:13:55.417Z,1007.6
2017-10-02T16:14:57.043Z,1007.6
2017-10-02T16:15:58.667Z,1007.6
2017-10-02T16:17:00.290Z,1007.6
2017-10-02T16:18:01.917Z,1007.6
2017-10-02T16:19:03.541Z,1007.7
2017-10-02T16:20:05.165Z,1007.7
2017-10-02T16:21:06.795Z,1007.8
2017-10-02T16:22:08.423Z,1007.8
2017-10-02T16:23:10.050Z,1007.8
2017-10-02T16:24:11.676Z,1007.8
2017-10-02T16:25:13.301Z,1007.8
2017-10-02T16:26:14.925Z,1007.9
2017-10-02T16:27:16.550Z,1007.8
2017-10-02T16:28:18.180Z,1007.9
2017-10-02T16:29:19.806Z,1007.9
2017-10-02T16:30:21.438Z,1008.0
2017-10-02T16:31:23.064Z,1007.9
2017-10-02T16:32:24.687Z,1007.9
2017-10-02T16:33:26.312Z,1008.0
2017-10-02T16:34:27.937Z,1008.0
2017-10-02T16:35:29.565Z,1008.0
2017-10-02T16:36:31.193Z,1008.1
2017-10-02T16:37:32.820Z,1008.0
2017-10-02T16:38:34.444Z,1008.0
2017-10-02T16:39:36.068Z,1008.0
2017-10-02T16:40:37.694Z,1008.0
2017-10-02T16:41:39.317Z,1008.0
2017-10-02T16:42:40.946Z,1008.0
2017-10-02T16:43:42.571Z,1008.0
2017-10-02T16:44:44.200Z,1008.0
2017-10-02T16:45:45.821Z,1008.0
2017-10-02T16:46:47.447Z,1008.0
2017-10-02T16:47:49.081Z,1007.9
2017-10-02T16:48:50.700Z,1007.9
2017-10-02T16:49:52.325Z,1008.0
2017-10-02T16:50:53.949Z,1007.9
2017-10-02T16:51:56.087Z,1007.9
2017-10-02T16:52:57.711Z,1007.9
2017-10-02T16:53:59.338Z,1007.9
2017-10-02T16:55:01.260Z,1007.9
2017-10-02T16:56:02.888Z,1008.0
2017-10-02T16:57:04.511Z,1007.9
2017-10-02T16:58:06.188Z,1007.9
2017-10-02T16:59:07.818Z,1007.9
2017-10-02T17:00:09.455Z,1007.8
2017-10-02T17:01:11.079Z,1007.9
2017-10-02T17:02:12.699Z,1007.9
2017-10-02T17:03:14.322Z,1007.9
2017-10-02T17:04:15.950Z,1007.9
2017-10-02T17:05:17.569Z,1007.9
2017-10-02T17:06:19.196Z,1007.9
2017-10-02T17:07:20.819Z,1007.9
2017-10-02T17:08:22.444Z,1007.9
2017-10-02T17:09:24.073Z,1007.9
2017-10-02T17:10:25.696Z,1007.9
2017-10-02T17:11:27.321Z,1008.0
2017-10-02T17:12:28.942Z,1008.0
2017-10-02T17:13:30.574Z,1008.0
2017-10-02T17:14:32.193Z,1007.9
2017-10-02T17:15:33.813Z,1007.9
2017-10-02T17:16:35.437Z,1007.9
2017-10-02T17:17:37.060Z,1007.9
2017-10-02T17:18:38.681Z,1007.9
2017-10-02T17:19:40.326Z,1008.0
2017-10-02T17:20:41.950Z,1008.0
2017-10-02T17:21:43.571Z,1008.1
2017-10-02T17:22:45.194Z,1008.1
2017-10-02T17:23:46.812Z,1008.1
2017-10-02T17:24:48.434Z,1008.1
2017-10-02T17:25:50.057Z,1008.0
2017-10-02T17:26:51.683Z,1008.0
2017-10-02T17:27:53.307Z,1008.0
2017-10-02T17:28:54.929Z,1008.0
2017-10-02T17:29:56.549Z,1008.1
2017-10-02T17:30:58.193Z,1008.1
2017-10-02T17:31:59.804Z,1008.0
2017-10-02T17:33:01.428Z,1007.9
2017-10-02T17:34:03.051Z,1008.0
2017-10-02T17:35:04.677Z,1008.0
2017-10-02T17:36:06.296Z,1008.1
2017-10-02T17:37:08.318Z,1008.0
2017-10-02T17:38:09.938Z,1008.0
2017-10-02T17:39:11.560Z,1008.1
2017-10-02T17:40:13.182Z,1008.1
2017-10-02T17:41:14.805Z,1008.0
2017-10-02T17:42:16.429Z,1008.1
2017-10-02T17:43:18.049Z,1008.1
2017-10-02T17:44:20.070Z,1008.2
2017-10-02T17:45:21.692Z,1008.1
2017-10-02T17:46:23.316Z,1008.2
2017-10-02T17:47:24.940Z,1008.2
2017-10-02T17:48:26.575Z,1008.2
2017-10-02T17:49:28.596Z,1008.2
2017-10-02T17:50:30.150Z,1008.2
2017-10-02T17:51:31.801Z,1008.2
2017-10-02T17:52:33.423Z,1008.2
2017-10-02T17:53:35.044Z,1008.2
2017-10-02T17:54:36.666Z,1008.1
2017-10-02T17:55:38.290Z,1008.1
2017-10-02T17:56:39.913Z,1008.2
2017-10-02T17:57:41.531Z,1008.2
2017-10-02T17:58:43.153Z,1008.2
2017-10-02T17:59:44.776Z,1008.2
2017-10-02T18:00:46.398Z,1008.1
2017-10-02T18:01:48.020Z,1008.1
2017-10-02T18:02:49.636Z,1008.1
2017-10-02T18:03:51.272Z,1008.1
2017-10-02T18:04:52.887Z,1008.0
2017-10-02T18:05:54.509Z,1008.1
2017-10-02T18:06:56.131Z,1008.1
2017-10-02T18:07:57.751Z,1008.1
2017-10-02T18:08:59.373Z,1008.2
2017-10-02T18:10:00.996Z,1008.2
2017-10-02T18:11:02.618Z,1008.2
2017-10-02T18:12:04.241Z,1008.2
2017-10-02T18:13:05.864Z,1008.2
2017-10-02T18:14:07.484Z,1008.2
2017-10-02T18:15:09.105Z,1008.2
2017-10-02T18:16:10.728Z,1008.2
2017-10-02T18:17:12.351Z,1008.2
2017-10-02T18:18:13.974Z,1008.2
2017-10-02T18:19:15.596Z,1008.2
2017-10-02T18:20:17.217Z,1008.2
2017-10-02T18:21:18.842Z,1008.2
2017-10-02T18:22:20.466Z,1008.1
2017-10-02T18:23:22.092Z,1008.1
2017-10-02T18:24:23.712Z,1008.2
2017-10-02T18:25:25.337Z,1008.2
2017-10-02T18:26:26.960Z,1008.2
2017-10-02T18:27:28.583Z,1008.2
2017-10-02T18:28:30.205Z,1008.2
2017-10-02T18:29:31.828Z,1008.2
2017-10-02T18:30:33.448Z,1008.2
2017-10-02T18:31:35.226Z,1008.2
2017-10-02T18:32:36.845Z,1008.2
2017-10-02T18:33:38.470Z,1008.2
2017-10-02T18:34:40.094Z,1008.2
2017-10-02T18:35:41.713Z,1008.2
2017-10-02T18:36:43.383Z,1008.2
2017-10-02T18:37:45.013Z,1008.2
2017-10-02T18:38:46.629Z,1008.2
2017-10-02T18:39:48.253Z,1008.2
2017-10-02T18:40:49.877Z,1008.2
2017-10-02T18:41:51.498Z,1008.1
2017-10-02T18:42:53.122Z,1008.2
2017-10-02T18:43:54.743Z,1008.2
2017-10-02T18:44:56.366Z,1008.2
2017-10-02T18:45:57.988Z,1008.2
2017-10-02T18:46:59.612Z,1008.2
2017-10-02T18:48:01.231Z,1008.2
2017-10-02T18:49:04.356Z,1008.2
2017-10-02T18:50:05.863Z,1008.2
2017-10-02T18:51:07.489Z,1008.2
2017-10-02T18:52:09.108Z,1008.2
2017-10-02T18:53:10.730Z,1008.2
2017-10-02T18:54:13.740Z,1008.2
2017-10-02T18:55:15.355Z,1008.2
2017-10-02T18:56:16.985Z,1008.2
2017-10-02T18:57:18.602Z,1008.3
2017-10-02T18:58:20.222Z,1008.3
2017-10-02T18:59:21.844Z,1008.3
2017-10-02T19:00:23.469Z,1008.3
2017-10-02T19:01:25.094Z,1008.3
2017-10-02T19:02:26.713Z,1008.3
2017-10-02T19:03:28.335Z,1008.4
2017-10-02T19:04:29.958Z,1008.4
2017-10-02T19:05:31.581Z,1008.4
2017-10-02T19:06:33.202Z,1008.4
2017-10-02T19:07:34.825Z,1008.4
2017-10-02T19:08:36.549Z,1008.4
2017-10-02T19:09:38.161Z,1008.4
2017-10-02T19:10:39.785Z,1008.4
2017-10-02T19:11:41.404Z,1008.4
2017-10-02T19:12:43.025Z,1008.4
2017-10-02T19:13:44.687Z,1008.4
2017-10-02T19:14:46.312Z,1008.4
2017-10-02T19:15:47.953Z,1008.4
2017-10-02T19:16:49.577Z,1008.5
2017-10-02T19:17:51.198Z,1008.4
2017-10-02T19:18:52.835Z,1008.4
2017-10-02T19:19:54.469Z,1008.4
2017-10-02T19:20:56.103Z,1008.3
2017-10-02T19:21:57.730Z,1008.3
2017-10-02T19:22:59.353Z,1008.3
2017-10-02T19:24:00.982Z,1008.3
2017-10-02T19:25:02.680Z,1008.3
2017-10-02T19:26:04.377Z,1008.3
2017-10-02T19:27:06.001Z,1008.3
2017-10-02T19:28:07.672Z,1008.2
2017-10-02T19:29:09.430Z,1008.3
2017-10-02T19:30:41.513Z,1008.3
2017-10-02T19:31:43.300Z,1008.3
2017-10-02T19:32:44.920Z,1008.3
2017-10-02T19:33:46.564Z,1008.3
2017-10-02T19:34:48.165Z,1008.3
2017-10-02T19:35:49.795Z,1008.3
2017-10-02T19:36:51.417Z,1008.2
2017-10-02T19:37:53.045Z,1008.2
2017-10-02T19:38:54.666Z,1008.2
2017-10-02T19:39:56.287Z,1008.2
2017-10-02T19:40:57.910Z,1008.2
2017-10-02T19:41:59.531Z,1008.2
2017-10-02T19:43:01.153Z,1008.2
2017-10-02T19:44:02.790Z,1008.2
2017-10-02T19:45:04.414Z,1008.3
2017-10-02T19:46:06.034Z,1008.2
2017-10-02T19:47:07.659Z,1008.2
2017-10-02T19:48:09.280Z,1008.2
2017-10-02T19:49:10.898Z,1008.2
2017-10-02T19:50:12.522Z,1008.2
2017-10-02T19:51:14.142Z,1008.2
2017-10-02T19:52:21.627Z,1008.1
2017-10-02T19:53:23.245Z,1008.1
2017-10-02T19:54:24.864Z,1008.1
2017-10-02T19:55:26.485Z,1008.2
2017-10-02T19:56:28.107Z,1008.2
2017-10-02T19:57:29.729Z,1008.2
2017-10-02T19:58:31.349Z,1008.2
2017-10-02T19:59:32.977Z,1008.2
2017-10-02T20:00:34.775Z,1008.2
2017-10-02T20:01:36.395Z,1008.1
2017-10-02T20:02:38.017Z,1008.0
2017-10-02T20:03:39.639Z,1008.1
2017-10-02T20:04:41.601Z,1008.1
2017-10-02T20:05:43.223Z,1008.1
2017-10-02T20:06:44.953Z,1008.1
2017-10-02T20:07:46.575Z,1008.1
2017-10-02T20:08:48.192Z,1008.1
2017-10-02T20:09:49.814Z,1008.0
2017-10-02T20:10:51.447Z,1008.0
2017-10-02T20:11:53.692Z,1008.0
2017-10-02T20:12:55.558Z,1008.0
2017-10-02T20:13:57.361Z,1008.0
2017-10-02T20:14:58.979Z,1008.0
2017-10-02T20:16:00.601Z,1008.1
2017-10-02T20:17:02.221Z,1008.1
2017-10-02T20:18:03.843Z,1008.1
2017-10-02T20:19:05.463Z,1008.1
2017-10-02T20:20:07.086Z,1008.3
2017-10-02T20:21:08.708Z,1008.2
2017-10-02T20:22:10.346Z,1008.1
2017-10-02T20:23:11.966Z,1008.1
2017-10-02T20:24:13.587Z,1008.1
2017-10-02T20:25:15.210Z,1008.1
2017-10-02T20:26:16.832Z,1008.1
2017-10-02T20:27:18.449Z,1008.2
2017-10-02T20:28:20.074Z,1008.2
2017-10-02T20:29:21.823Z,1008.1
2017-10-02T20:30:23.442Z,1008.1
2017-10-02T20:31:25.062Z,1008.1
2017-10-02T20:32:26.687Z,1008.2
2017-10-02T20:33:28.307Z,1008.1
2017-10-02T20:34:29.927Z,1008.1
2017-10-02T20:35:31.550Z,1008.2
2017-10-02T20:36:33.169Z,1008.1
2017-10-02T20:37:34.791Z,1008.2
2017-10-02T20:38:36.416Z,1008.2
2017-10-02T20:39:38.279Z,1008.2
2017-10-02T20:40:39.902Z,1008.2
2017-10-02T20:41:41.523Z,1008.2
2017-10-02T20:42:43.146Z,1008.2
2017-10-02T20:43:44.766Z,1008.3
2017-10-02T20:44:46.385Z,1008.2
2017-10-02T20:45:48.008Z,1008.3
2017-10-02T20:46:49.637Z,1008.2
2017-10-02T20:47:51.303Z,1008.3
2017-10-02T20:48:54.090Z,1008.3
2017-10-02T20:49:55.750Z,1008.3
2017-10-02T20:50:57.372Z,1008.4
2017-10-02T20:51:59.025Z,1008.4
2017-10-02T20:53:00.646Z,1008.4
2017-10-02T20:54:02.309Z,1008.4
2017-10-02T20:55:03.932Z,1008.4
2017-10-02T20:56:05.550Z,1008.3
2017-10-02T20:57:07.175Z,1008.3
2017-10-02T20:58:08.795Z,1008.3
2017-10-02T20:59:10.417Z,1008.4
2017-10-02T21:00:12.038Z,1008.4
2017-10-02T21:01:13.659Z,1008.4
2017-10-02T21:02:15.279Z,1008.4
2017-10-02T21:03:16.899Z,1008.6
2017-10-02T21:04:18.525Z,1008.5
2017-10-02T21:05:20.145Z,1008.6
2017-10-02T21:06:21.764Z,1008.6
2017-10-02T21:07:23.385Z,1008.7
2017-10-02T21:08:25.007Z,1008.6
2017-10-02T21:09:26.906Z,1008.6
2017-10-02T21:10:28.528Z,1008.6
2017-10-02T21:11:30.174Z,1008.6
2017-10-02T21:12:31.785Z,1008.6
2017-10-02T21:13:33.405Z,1008.6
2017-10-02T21:14:35.026Z,1008.5
2017-10-02T21:15:36.646Z,1008.6
2017-10-02T21:16:38.270Z,1008.6
2017-10-02T21:17:39.889Z,1008.6
2017-10-02T21:18:41.519Z,1008.6
2017-10-02T21:19:43.133Z,1008.7
2017-10-02T21:20:44.781Z,1008.6
2017-10-02T21:21:46.398Z,1008.7
2017-10-02T21:22:48.022Z,1008.7
2017-10-02T21:23:49.642Z,1008.7
2017-10-02T21:24:51.263Z,1008.7
2017-10-02T21:25:52.885Z,1008.7
2017-10-02T21:26:56.036Z,1008.7
2017-10-02T21:27:57.657Z,1008.7
2017-10-02T21:28:59.278Z,1008.7
2017-10-02T21:30:00.900Z,1008.8
2017-10-02T21:31:02.816Z,1008.7
2017-10-02T21:32:04.437Z,1008.7
2017-10-02T21:33:06.059Z,1008.7
2017-10-02T21:34:07.682Z,1008.6
2017-10-02T21:35:09.303Z,1008.6
2017-10-02T21:36:10.922Z,1008.6
2017-10-02T21:37:12.545Z,1008.7
2017-10-02T21:38:14.167Z,1008.6
2017-10-02T21:39:15.814Z,1008.7
2017-10-02T21:40:17.409Z,1008.7
2017-10-02T21:41:19.031Z,1008.6
2017-10-02T21:42:20.653Z,1008.6
2017-10-02T21:43:22.275Z,1008.6
2017-10-02T21:44:23.897Z,1008.6
2017-10-02T21:45:25.518Z,1008.7
2017-10-02T21:46:27.140Z,1008.7
2017-10-02T21:47:28.863Z,1008.6
2017-10-02T21:48:30.476Z,1008.6
2017-10-02T21:49:32.097Z,1008.6
2017-10-02T21:50:33.720Z,1008.5
2017-10-02T21:51:35.343Z,1008.5
2017-10-02T21:52:36.964Z,1008.5
2017-10-02T21:53:38.587Z,1008.5
2017-10-02T21:54:40.211Z,1008.5
2017-10-02T21:55:41.831Z,1008.5
2017-10-02T21:56:43.455Z,1008.5
2017-10-02T21:57:45.075Z,1008.5
2017-10-02T21:58:46.696Z,1008.6
2017-10-02T21:59:48.320Z,1008.5
2017-10-02T22:00:49.942Z,1008.5
2017-10-02T22:01:51.564Z,1008.5
2017-10-02T22:02:53.184Z,1008.5
2017-10-02T22:03:54.805Z,1008.5
2017-10-02T22:04:56.428Z,1008.5
2017-10-02T22:05:58.050Z,1008.5
2017-10-02T22:06:59.673Z,1008.4
2017-10-02T22:08:01.294Z,1008.5
2017-10-02T22:09:02.917Z,1008.5
2017-10-02T22:10:04.537Z,1008.5
2017-10-02T22:11:06.157Z,1008.5
2017-10-02T22:12:07.776Z,1008.5
2017-10-02T22:13:09.398Z,1008.5
2017-10-02T22:14:11.021Z,1008.4
2017-10-02T22:15:12.641Z,1008.5
2017-10-02T22:16:14.267Z,1008.5
2017-10-02T22:17:15.885Z,1008.5
2017-10-02T22:18:17.506Z,1008.5
2017-10-02T22:19:19.130Z,1008.5
2017-10-02T22:20:20.751Z,1008.6
2017-10-02T22:21:22.373Z,1008.5
2017-10-02T22:22:23.996Z,1008.5